Time;durP1;ratioP1;P1;durP2;ratioP2;P2;SDS_P1;SDS_P2;PMS_P1;PMS_P2;Temp;Humidity;BMP_temperature;BMP_pressure;BME280_temperature;BME280_humidity;BME280_pressure;Samples;Min_cycle;Max_cycle;Signal;HPM_P1;HPM_P2
2023/08/18 00:00:36;;;;;;;5.20;3.70;;;;;;;;;;5015886;28;20291;-49
2023/08/18 00:03:02;;;;;;;6.70;4.63;;;;;;;;;;5015640;28;20246;-49
2023/08/18 00:05:28;;;;;;;7.45;4.63;;;;;;;;;;5015826;28;20181;-49
2023/08/18 00:07:54;;;;;;;5.35;4.20;;;;;;;;;;5016223;28;20310;-49
2023/08/18 00:10:20;;;;;;;6.25;4.28;;;;;;;;;;5015489;28;20223;-49
2023/08/18 00:12:46;;;;;;;5.88;4.45;;;;;;;;;;5015202;28;20184;-49
2023/08/18 00:15:12;;;;;;;5.50;4.03;;;;;;;;;;5015443;28;20188;-49
2023/08/18 00:17:41;;;;;;;5.22;3.97;;;;;;;;;;5015957;28;20196;-49
2023/08/18 00:20:08;;;;;;;6.85;4.43;;;;;;;;;;5015179;28;20208;-49
2023/08/18 00:22:34;;;;;;;5.60;3.97;;;;;;;;;;5015737;28;20264;-49
2023/08/18 00:25:00;;;;;;;6.55;4.18;;;;;;;;;;5014662;28;20224;-49
2023/08/18 00:27:26;;;;;;;5.07;4.05;;;;;;;;;;5015526;28;20181;-49
2023/08/18 00:29:52;;;;;;;4.28;3.70;;;;;;;;;;5014429;28;20241;-49
2023/08/18 00:32:18;;;;;;;4.18;3.78;;;;;;;;;;5015766;28;20307;-49
2023/08/18 00:34:44;;;;;;;4.65;3.60;;;;;;;;;;5014812;28;20588;-49
2023/08/18 00:37:10;;;;;;;5.88;3.95;;;;;;;;;;5015417;28;20483;-49
2023/08/18 00:39:36;;;;;;;5.88;3.58;;;;;;;;;;5014426;28;20206;-48
2023/08/18 00:42:01;;;;;;;5.82;3.78;;;;;;;;;;5015818;28;20177;-48
2023/08/18 00:44:27;;;;;;;5.35;3.55;;;;;;;;;;5014458;28;20180;-48
2023/08/18 00:46:53;;;;;;;6.78;3.55;;;;;;;;;;5015645;28;20497;-48
2023/08/18 00:49:20;;;;;;;4.95;3.53;;;;;;;;;;5012847;28;20242;-49
2023/08/18 00:51:46;;;;;;;4.65;3.67;;;;;;;;;;5014833;28;20194;-49
2023/08/18 00:54:12;;;;;;;3.80;3.33;;;;;;;;;;5014295;28;20242;-49
2023/08/18 00:56:38;;;;;;;4.22;3.80;;;;;;;;;;5015256;28;20181;-49
2023/08/18 00:59:05;;;;;;;3.83;3.53;;;;;;;;;;5014874;28;20188;-49
2023/08/18 01:01:31;;;;;;;4.72;3.85;;;;;;;;;;5014227;28;20176;-49
2023/08/18 01:03:57;;;;;;;4.38;3.35;;;;;;;;;;5014187;28;20184;-49
2023/08/18 01:06:23;;;;;;;7.72;3.60;;;;;;;;;;5014925;28;20184;-49
2023/08/18 01:08:50;;;;;;;5.60;4.28;;;;;;;;;;5014991;28;20176;-49
2023/08/18 01:11:17;;;;;;;4.57;3.40;;;;;;;;;;5014782;28;20192;-49
2023/08/18 01:13:51;;;;;;;5.35;3.50;;;;;;;;;;5014650;28;20271;-49
2023/08/18 01:16:21;;;;;;;5.03;3.15;;;;;;;;;;5014829;28;20219;-49
2023/08/18 01:18:47;;;;;;;3.95;3.42;;;;;;;;;;5014366;28;20195;-49
2023/08/18 01:21:14;;;;;;;7.53;3.67;;;;;;;;;;5014788;28;20212;-49
2023/08/18 01:23:41;;;;;;;4.30;3.42;;;;;;;;;;5013599;28;20275;-49
2023/08/18 01:26:07;;;;;;;5.38;3.58;;;;;;;;;;5013728;28;20245;-49
2023/08/18 01:28:33;;;;;;;3.70;3.10;;;;;;;;;;5013671;28;20641;-49
2023/08/18 01:31:01;;;;;;;4.78;3.70;;;;;;;;;;5014703;28;20463;-49
2023/08/18 01:33:37;;;;;;;3.85;3.45;;;;;;;;;;5013900;28;20199;-49
2023/08/18 01:36:05;;;;;;;5.45;3.65;;;;;;;;;;5014859;28;20195;-49
2023/08/18 01:38:31;;;;;;;5.15;3.80;;;;;;;;;;5014620;28;20185;-49
2023/08/18 01:40:58;;;;;;;5.30;3.42;;;;;;;;;;5014149;28;20204;-49
2023/08/18 01:43:24;;;;;;;4.38;3.50;;;;;;;;;;5014373;28;20188;-49
2023/08/18 01:45:50;;;;;;;3.75;3.45;;;;;;;;;;5014560;28;20192;-49
2023/08/18 01:48:16;;;;;;;4.97;3.55;;;;;;;;;;5014340;28;20548;-49
2023/08/18 01:50:42;;;;;;;6.53;3.40;;;;;;;;;;5013872;28;20587;-49
2023/08/18 01:53:08;;;;;;;4.38;3.97;;;;;;;;;;5014423;28;20283;-49
2023/08/18 01:55:33;;;;;;;4.00;3.60;;;;;;;;;;5014349;28;20284;-49
2023/08/18 01:57:59;;;;;;;4.60;3.50;;;;;;;;;;5014335;28;20216;-49
2023/08/18 02:00:25;;;;;;;6.82;3.88;;;;;;;;;;5013817;28;20212;-49
2023/08/18 02:02:51;;;;;;;3.50;3.20;;;;;;;;;;5013582;28;20188;-49
2023/08/18 02:05:17;;;;;;;4.38;3.90;;;;;;;;;;5014098;28;20181;-49
2023/08/18 02:07:43;;;;;;;10.75;3.88;;;;;;;;;;5014545;28;20683;-49
2023/08/18 02:10:09;;;;;;;3.78;3.42;;;;;;;;;;5013548;28;20185;-49
2023/08/18 02:12:35;;;;;;;4.93;3.60;;;;;;;;;;5014251;28;20184;-49
2023/08/18 02:15:01;;;;;;;3.60;3.30;;;;;;;;;;5017888;28;20655;-49
2023/08/18 02:17:29;;;;;;;5.28;3.58;;;;;;;;;;5018085;28;20195;-49
2023/08/18 02:19:58;;;;;;;4.68;3.70;;;;;;;;;;5016840;28;20242;-49
2023/08/18 02:22:24;;;;;;;4.22;3.38;;;;;;;;;;5018061;28;20197;-49
2023/08/18 02:24:50;;;;;;;4.40;3.88;;;;;;;;;;5017045;28;20223;-49
2023/08/18 02:27:16;;;;;;;6.15;3.45;;;;;;;;;;5018028;28;20497;-49
2023/08/18 02:29:42;;;;;;;5.07;3.55;;;;;;;;;;5017378;28;20196;-49
2023/08/18 02:32:08;;;;;;;5.93;3.80;;;;;;;;;;5017729;28;20183;-49
2023/08/18 02:34:34;;;;;;;4.00;3.42;;;;;;;;;;5017300;28;20428;-49
2023/08/18 02:37:00;;;;;;;5.57;3.28;;;;;;;;;;5017319;28;20188;-49
2023/08/18 02:39:26;;;;;;;5.53;3.38;;;;;;;;;;5016519;28;20212;-49
2023/08/18 02:41:52;;;;;;;5.03;3.05;;;;;;;;;;5018164;28;20212;-49
2023/08/18 02:44:20;;;;;;;25.80;3.63;;;;;;;;;;5016675;28;20445;-49
2023/08/18 02:46:47;;;;;;;3.78;3.13;;;;;;;;;;5014210;28;20227;-49
2023/08/18 02:49:13;;;;;;;4.72;2.83;;;;;;;;;;5020070;28;20175;-49
2023/08/18 02:51:39;;;;;;;4.57;3.08;;;;;;;;;;5017218;28;20184;-49
2023/08/18 02:54:05;;;;;;;6.07;3.63;;;;;;;;;;5017164;28;20594;-49
2023/08/18 02:56:34;;;;;;;3.20;3.00;;;;;;;;;;5017257;28;20180;-49
2023/08/18 02:59:00;;;;;;;4.28;3.03;;;;;;;;;;5016917;28;20193;-49
2023/08/18 03:01:25;;;;;;;3.10;2.78;;;;;;;;;;5016596;28;20183;-49
2023/08/18 03:03:51;;;;;;;3.28;2.90;;;;;;;;;;5016445;28;20176;-49
2023/08/18 03:06:17;;;;;;;2.72;2.53;;;;;;;;;;5015776;28;20514;-49
2023/08/18 03:08:43;;;;;;;2.88;2.67;;;;;;;;;;5016904;28;20186;-49
2023/08/18 03:11:09;;;;;;;5.28;2.70;;;;;;;;;;5016632;28;20441;-49
2023/08/18 03:13:35;;;;;;;2.65;2.45;;;;;;;;;;5016795;28;20227;-49
2023/08/18 03:16:03;;;;;;;3.55;2.83;;;;;;;;;;5016112;28;20177;-49
2023/08/18 03:18:28;;;;;;;2.92;2.38;;;;;;;;;;5010890;28;20180;-49
2023/08/18 03:20:59;;;;;;;2.72;2.53;;;;;;;;;;5016222;28;20235;-48
2023/08/18 03:23:25;;;;;;;2.83;2.63;;;;;;;;;;5010339;28;20477;-48
2023/08/18 03:25:51;;;;;;;2.50;2.30;;;;;;;;;;5016300;28;20181;-48
2023/08/18 03:28:17;;;;;;;2.60;2.40;;;;;;;;;;5016562;28;20247;-48
2023/08/18 03:30:43;;;;;;;3.17;2.90;;;;;;;;;;5016314;28;20200;-49
2023/08/18 03:33:09;;;;;;;2.42;2.22;;;;;;;;;;5016108;28;20200;-49
2023/08/18 03:35:35;;;;;;;4.03;2.22;;;;;;;;;;5016925;28;20180;-49
2023/08/18 03:38:05;;;;;;;17.90;4.65;;;;;;;;;;5015154;28;20349;-49
2023/08/18 03:40:31;;;;;;;6.13;3.38;;;;;;;;;;5015339;28;20284;-49
2023/08/18 03:42:57;;;;;;;3.17;2.70;;;;;;;;;;5011989;28;20272;-49
2023/08/18 03:45:23;;;;;;;5.88;2.65;;;;;;;;;;5013686;28;20520;-49
2023/08/18 03:47:51;;;;;;;3.20;2.40;;;;;;;;;;5015261;28;20575;-49
2023/08/18 03:50:18;;;;;;;2.97;2.10;;;;;;;;;;5013964;28;20184;-49
2023/08/18 03:52:44;;;;;;;3.80;2.53;;;;;;;;;;5010705;28;20184;-49
2023/08/18 03:55:10;;;;;;;12.15;3.58;;;;;;;;;;5014986;28;20223;-49
2023/08/18 03:57:36;;;;;;;12.43;3.50;;;;;;;;;;5014905;28;20185;-49
2023/08/18 04:00:03;;;;;;;6.35;3.47;;;;;;;;;;5013701;28;20215;-49
2023/08/18 04:02:29;;;;;;;5.97;3.03;;;;;;;;;;5011510;28;20250;-49
2023/08/18 04:04:55;;;;;;;7.32;2.85;;;;;;;;;;5015625;28;20180;-49
2023/08/18 04:07:21;;;;;;;5.68;2.67;;;;;;;;;;5015786;28;20172;-49
2023/08/18 04:09:47;;;;;;;7.30;2.90;;;;;;;;;;5016049;28;20228;-49
2023/08/18 04:12:13;;;;;;;4.28;2.30;;;;;;;;;;5015142;28;20571;-49
2023/08/18 04:14:39;;;;;;;7.68;2.30;;;;;;;;;;5015149;28;20439;-49
2023/08/18 04:17:05;;;;;;;3.22;2.13;;;;;;;;;;5014236;28;20184;-49
2023/08/18 04:19:31;;;;;;;4.13;2.33;;;;;;;;;;5011535;28;20215;-49
2023/08/18 04:21:57;;;;;;;4.80;2.33;;;;;;;;;;5019783;28;21988;-49
2023/08/18 04:24:22;;;;;;;4.13;2.13;;;;;;;;;;5014598;28;20204;-49
2023/08/18 04:26:48;;;;;;;2.95;2.05;;;;;;;;;;5015746;28;20212;-49
2023/08/18 04:29:14;;;;;;;3.03;2.00;;;;;;;;;;5013604;28;20188;-49
2023/08/18 04:31:40;;;;;;;2.28;2.08;;;;;;;;;;5014547;28;20187;-49
2023/08/18 04:34:07;;;;;;;9.30;2.47;;;;;;;;;;5014974;28;20176;-57
2023/08/18 04:36:33;;;;;;;6.03;2.50;;;;;;;;;;5014482;28;20215;-52
2023/08/18 04:38:59;;;;;;;5.00;2.30;;;;;;;;;;5014575;28;20176;-52
2023/08/18 04:41:25;;;;;;;2.30;2.05;;;;;;;;;;5015068;28;20208;-57
2023/08/18 04:43:52;;;;;;;5.90;2.10;;;;;;;;;;5014781;28;20183;-52
2023/08/18 04:46:18;;;;;;;2.67;2.20;;;;;;;;;;5014708;28;20173;-51
2023/08/18 04:48:44;;;;;;;2.53;2.22;;;;;;;;;;5015467;28;20254;-51
2023/08/18 04:51:10;;;;;;;4.00;2.00;;;;;;;;;;5014422;28;20267;-51
2023/08/18 04:53:36;;;;;;;4.82;2.33;;;;;;;;;;5014150;28;20255;-51
2023/08/18 04:56:03;;;;;;;1.92;1.83;;;;;;;;;;5013027;28;20826;-51
2023/08/18 04:58:29;;;;;;;8.23;2.45;;;;;;;;;;5014937;28;20223;-51
2023/08/18 05:00:55;;;;;;;4.50;2.72;;;;;;;;;;5013331;28;20235;-51
2023/08/18 05:03:21;;;;;;;4.95;2.67;;;;;;;;;;5013839;28;20196;-51
2023/08/18 05:06:00;;;;;;;8.02;2.80;;;;;;;;;;5013335;28;20559;-51
2023/08/18 05:08:27;;;;;;;3.55;2.80;;;;;;;;;;5012840;28;20180;-51
2023/08/18 05:10:53;;;;;;;4.75;3.13;;;;;;;;;;5015167;28;20176;-51
2023/08/18 05:13:19;;;;;;;4.13;2.95;;;;;;;;;;5012703;28;20304;-51
2023/08/18 05:15:45;;;;;;;4.70;2.78;;;;;;;;;;5012916;28;20242;-51
2023/08/18 05:18:11;;;;;;;5.70;3.25;;;;;;;;;;5029164;28;20192;-51
2023/08/18 05:20:37;;;;;;;3.53;3.22;;;;;;;;;;5013663;28;20231;-51
2023/08/18 05:23:05;;;;;;;3.08;2.75;;;;;;;;;;5014334;28;20207;-51
2023/08/18 05:25:31;;;;;;;6.35;3.20;;;;;;;;;;5014678;28;20211;-51
2023/08/18 05:27:57;;;;;;;3.22;2.85;;;;;;;;;;5014786;28;20686;-51
2023/08/18 05:30:23;;;;;;;8.10;3.53;;;;;;;;;;5014298;28;20259;-51
2023/08/18 05:32:49;;;;;;;6.47;3.15;;;;;;;;;;5014322;28;20219;-51
2023/08/18 05:35:15;;;;;;;7.78;3.60;;;;;;;;;;5031341;28;20262;-53
2023/08/18 05:37:41;;;;;;;3.58;2.90;;;;;;;;;;5014603;28;20233;-56
2023/08/18 05:40:08;;;;;;;4.32;3.20;;;;;;;;;;5014085;28;20251;-59
2023/08/18 05:42:34;;;;;;;6.70;3.10;;;;;;;;;;5014603;28;20259;-59
2023/08/18 05:45:00;;;;;;;3.40;3.10;;;;;;;;;;5014026;28;20187;-59
2023/08/18 05:47:26;;;;;;;6.70;3.50;;;;;;;;;;5014258;28;20184;-59
2023/08/18 05:49:52;;;;;;;6.15;3.50;;;;;;;;;;5017847;28;20183;-60
2023/08/18 05:52:18;;;;;;;8.10;3.85;;;;;;;;;;5018611;28;20243;-60
2023/08/18 05:54:44;;;;;;;3.72;2.92;;;;;;;;;;5017814;28;20192;-60
2023/08/18 05:57:10;;;;;;;6.25;3.13;;;;;;;;;;5033697;28;20206;-60
2023/08/18 05:59:36;;;;;;;5.07;3.13;;;;;;;;;;5016948;28;20200;-54
2023/08/18 06:02:04;;;;;;;5.57;3.97;;;;;;;;;;5018665;28;20176;-51
2023/08/18 06:04:30;;;;;;;9.45;3.40;;;;;;;;;;5016285;28;20619;-51
2023/08/18 06:06:55;;;;;;;6.93;3.33;;;;;;;;;;5018298;28;20263;-51
2023/08/18 06:09:21;;;;;;;8.38;3.50;;;;;;;;;;5017533;28;20267;-51
2023/08/18 06:11:47;;;;;;;5.90;3.45;;;;;;;;;;5018172;28;20326;-52
2023/08/18 06:14:13;;;;;;;7.85;3.33;;;;;;;;;;5016834;28;20196;-51
2023/08/18 06:16:39;;;;;;;8.35;3.67;;;;;;;;;;5017856;28;20208;-51
2023/08/18 06:19:05;;;;;;;4.85;3.50;;;;;;;;;;5017564;28;20861;-51
2023/08/18 06:21:31;;;;;;;3.88;3.10;;;;;;;;;;5017894;28;20204;-51
2023/08/18 06:23:57;;;;;;;6.28;3.80;;;;;;;;;;5016597;28;20193;-51
2023/08/18 06:26:23;;;;;;;4.82;3.70;;;;;;;;;;5016723;28;20521;-51
2023/08/18 06:28:49;;;;;;;3.88;3.47;;;;;;;;;;5016298;28;20176;-51
2023/08/18 06:31:15;;;;;;;7.43;3.65;;;;;;;;;;5017149;28;20185;-51
2023/08/18 06:33:41;;;;;;;4.43;3.42;;;;;;;;;;5016669;28;20470;-51
2023/08/18 06:36:07;;;;;;;3.50;3.03;;;;;;;;;;5016967;28;20192;-51
2023/08/18 06:38:33;;;;;;;4.28;3.20;;;;;;;;;;5016430;28;20231;-51
2023/08/18 06:40:59;;;;;;;4.68;2.95;;;;;;;;;;5017080;28;20211;-51
2023/08/18 06:43:25;;;;;;;6.13;3.00;;;;;;;;;;5016728;28;20231;-51
2023/08/18 06:45:51;;;;;;;4.60;3.05;;;;;;;;;;5016935;28;20591;-51
2023/08/18 06:48:17;;;;;;;3.85;3.05;;;;;;;;;;5016479;28;20184;-51
2023/08/18 06:50:43;;;;;;;4.22;3.05;;;;;;;;;;5016858;28;20275;-52
2023/08/18 06:53:09;;;;;;;3.95;3.05;;;;;;;;;;5016767;28;20184;-51
2023/08/18 06:55:35;;;;;;;3.42;2.97;;;;;;;;;;5013359;28;20184;-51
2023/08/18 06:58:01;;;;;;;3.58;3.08;;;;;;;;;;5015680;28;20227;-51
2023/08/18 07:00:27;;;;;;;3.42;3.13;;;;;;;;;;5014917;28;20210;-51
2023/08/18 07:02:53;;;;;;;3.25;2.95;;;;;;;;;;5016794;28;20204;-51
2023/08/18 07:05:19;;;;;;;5.53;3.40;;;;;;;;;;5016930;28;20191;-51
2023/08/18 07:07:46;;;;;;;4.65;3.42;;;;;;;;;;5017440;28;20181;-51
2023/08/18 07:10:12;;;;;;;4.32;3.40;;;;;;;;;;5016857;28;20180;-51
2023/08/18 07:12:38;;;;;;;3.60;3.20;;;;;;;;;;5016619;28;20247;-51
2023/08/18 07:15:04;;;;;;;4.53;3.25;;;;;;;;;;5016711;28;20204;-51
2023/08/18 07:17:30;;;;;;;5.63;3.25;;;;;;;;;;5014611;28;20259;-51
2023/08/18 07:19:56;;;;;;;4.60;3.15;;;;;;;;;;5015424;28;20279;-51
2023/08/18 07:22:22;;;;;;;3.13;2.83;;;;;;;;;;5015810;28;20204;-51
2023/08/18 07:24:48;;;;;;;3.30;3.00;;;;;;;;;;5015059;28;20260;-51
2023/08/18 07:27:14;;;;;;;3.55;3.10;;;;;;;;;;5016502;28;20177;-52
2023/08/18 07:29:40;;;;;;;3.67;2.97;;;;;;;;;;5015388;28;20664;-51
2023/08/18 07:32:06;;;;;;;3.40;3.10;;;;;;;;;;5016547;28;20853;-51
2023/08/18 07:34:32;;;;;;;3.28;2.97;;;;;;;;;;5016289;28;20200;-52
2023/08/18 07:36:58;;;;;;;4.38;3.00;;;;;;;;;;5016823;28;20198;-51
2023/08/18 07:39:24;;;;;;;3.55;3.17;;;;;;;;;;5016027;28;20235;-51
2023/08/18 07:41:50;;;;;;;3.60;2.83;;;;;;;;;;5016844;28;20226;-51
2023/08/18 07:44:16;;;;;;;4.53;3.55;;;;;;;;;;5016349;28;20180;-51
2023/08/18 07:46:42;;;;;;;3.75;3.28;;;;;;;;;;5015930;28;20176;-51
2023/08/18 07:49:08;;;;;;;4.93;3.22;;;;;;;;;;5016144;28;20207;-51
2023/08/18 07:51:34;;;;;;;4.13;3.13;;;;;;;;;;5016611;28;20188;-51
2023/08/18 07:54:00;;;;;;;3.50;3.05;;;;;;;;;;5016121;28;20203;-51
2023/08/18 07:56:26;;;;;;;3.60;3.10;;;;;;;;;;5016451;28;20222;-51
2023/08/18 07:58:52;;;;;;;3.42;3.13;;;;;;;;;;5015671;28;20184;-52
2023/08/18 08:01:18;;;;;;;2.92;2.72;;;;;;;;;;5016216;28;20227;-51
2023/08/18 08:03:44;;;;;;;3.53;3.22;;;;;;;;;;5015802;28;20568;-51
2023/08/18 08:06:10;;;;;;;3.33;3.03;;;;;;;;;;5016459;28;20196;-51
2023/08/18 08:08:36;;;;;;;4.05;3.20;;;;;;;;;;5031313;28;20185;-51
2023/08/18 08:11:02;;;;;;;4.45;3.50;;;;;;;;;;5015149;28;20187;-51
2023/08/18 08:13:28;;;;;;;4.85;3.45;;;;;;;;;;5015477;28;20184;-51
2023/08/18 08:15:54;;;;;;;3.88;3.53;;;;;;;;;;5016036;28;20212;-52
2023/08/18 08:18:20;;;;;;;4.25;3.67;;;;;;;;;;5015510;28;20444;-51
2023/08/18 08:20:46;;;;;;;5.57;3.55;;;;;;;;;;5016067;28;20214;-51
2023/08/18 08:23:12;;;;;;;3.67;3.10;;;;;;;;;;5015294;28;20195;-51
2023/08/18 08:25:40;;;;;;;4.28;3.38;;;;;;;;;;5015677;28;20192;-51
2023/08/18 08:28:06;;;;;;;3.97;3.67;;;;;;;;;;5014635;28;20171;-51
2023/08/18 08:30:32;;;;;;;4.18;3.58;;;;;;;;;;5015313;28;20195;-51
2023/08/18 08:32:58;;;;;;;4.10;3.67;;;;;;;;;;5014972;28;20568;-51
2023/08/18 08:35:24;;;;;;;4.20;3.38;;;;;;;;;;5015601;28;20180;-51
2023/08/18 08:37:50;;;;;;;4.53;3.47;;;;;;;;;;5015744;28;20563;-51
2023/08/18 08:40:18;;;;;;;5.88;3.63;;;;;;;;;;5014920;28;20232;-51
2023/08/18 08:42:44;;;;;;;4.28;3.88;;;;;;;;;;5007176;28;20190;-51
2023/08/18 08:45:10;;;;;;;3.58;3.28;;;;;;;;;;5015582;28;20422;-51
2023/08/18 08:47:36;;;;;;;6.57;3.80;;;;;;;;;;5015245;28;20567;-51
2023/08/18 08:50:03;;;;;;;7.93;3.42;;;;;;;;;;5015541;28;20263;-51
2023/08/18 08:52:35;;;;;;;4.05;3.65;;;;;;;;;;5015675;28;20202;-51
2023/08/18 08:55:03;;;;;;;6.55;3.60;;;;;;;;;;5015086;28;20203;-51
2023/08/18 08:57:28;;;;;;;6.32;3.20;;;;;;;;;;5014890;28;20315;-51
2023/08/18 08:59:55;;;;;;;4.47;3.80;;;;;;;;;;5014979;28;20212;-51
2023/08/18 09:02:21;;;;;;;6.95;3.80;;;;;;;;;;5015414;28;20180;-51
2023/08/18 09:04:47;;;;;;;3.80;3.40;;;;;;;;;;5015158;28;20180;-51
2023/08/18 09:07:14;;;;;;;4.75;3.35;;;;;;;;;;5015255;28;20694;-52
2023/08/18 09:09:40;;;;;;;4.20;3.80;;;;;;;;;;5014644;28;20181;-51
2023/08/18 09:12:07;;;;;;;3.72;3.42;;;;;;;;;;5014955;28;20521;-51
2023/08/18 09:14:38;;;;;;;4.25;3.45;;;;;;;;;;5014796;28;20259;-51
2023/08/18 09:17:04;;;;;;;4.38;3.25;;;;;;;;;;5014952;28;20177;-51
2023/08/18 09:19:30;;;;;;;4.07;3.67;;;;;;;;;;5022681;28;20574;-51
2023/08/18 09:21:59;;;;;;;4.30;3.90;;;;;;;;;;5015463;28;20180;-51
2023/08/18 09:24:26;;;;;;;5.65;4.15;;;;;;;;;;5014167;28;20169;-51
2023/08/18 09:26:52;;;;;;;4.53;3.70;;;;;;;;;;5014917;28;20705;-51
2023/08/18 09:29:18;;;;;;;4.10;3.70;;;;;;;;;;5029753;28;20184;-51
2023/08/18 09:31:45;;;;;;;4.55;4.15;;;;;;;;;;5015184;28;20200;-51
2023/08/18 09:34:19;;;;;;;5.50;4.40;;;;;;;;;;5015115;28;20192;-51
2023/08/18 09:36:51;;;;;;;4.90;4.25;;;;;;;;;;5014684;28;20171;-51
2023/08/18 09:39:17;;;;;;;4.60;4.18;;;;;;;;;;5030100;28;20591;-51
2023/08/18 09:41:45;;;;;;;4.40;4.00;;;;;;;;;;5015077;28;20204;-51
2023/08/18 09:44:11;;;;;;;4.50;4.10;;;;;;;;;;5014303;28;20226;-51
2023/08/18 09:46:38;;;;;;;5.50;4.47;;;;;;;;;;5023744;28;20196;-51
2023/08/18 09:49:06;;;;;;;4.20;3.80;;;;;;;;;;5028881;28;20180;-51
2023/08/18 09:51:32;;;;;;;4.72;3.72;;;;;;;;;;5014796;28;20184;-51
2023/08/18 09:54:00;;;;;;;4.22;3.83;;;;;;;;;;5014196;28;20185;-51
2023/08/18 09:56:28;;;;;;;4.22;3.42;;;;;;;;;;5015114;28;20550;-51
2023/08/18 09:58:57;;;;;;;4.88;3.72;;;;;;;;;;5014102;28;20477;-51
2023/08/18 10:01:25;;;;;;;4.40;4.00;;;;;;;;;;5014591;28;20270;-51
2023/08/18 10:03:53;;;;;;;5.45;4.20;;;;;;;;;;5014369;28;20184;-51
2023/08/18 10:06:20;;;;;;;4.85;4.25;;;;;;;;;;5014886;28;20602;-51
2023/08/18 10:08:46;;;;;;;5.70;4.00;;;;;;;;;;5014318;28;20271;-51
2023/08/18 10:11:13;;;;;;;4.47;4.07;;;;;;;;;;5014961;28;20287;-51
2023/08/18 10:13:39;;;;;;;4.38;3.97;;;;;;;;;;5014233;28;20227;-51
2023/08/18 10:16:06;;;;;;;5.43;4.00;;;;;;;;;;5013905;28;20548;-51
2023/08/18 10:18:32;;;;;;;4.88;4.03;;;;;;;;;;5014058;28;20260;-51
2023/08/18 10:20:59;;;;;;;6.15;3.92;;;;;;;;;;5014565;28;20212;-51
2023/08/18 10:23:25;;;;;;;11.23;4.30;;;;;;;;;;5014239;28;20180;-51
2023/08/18 10:25:52;;;;;;;11.55;5.18;;;;;;;;;;5014558;28;20176;-51
2023/08/18 10:28:19;;;;;;;5.82;4.47;;;;;;;;;;5013397;28;20584;-51
2023/08/18 10:30:54;;;;;;;4.65;4.15;;;;;;;;;;5013975;28;20216;-52
2023/08/18 10:33:28;;;;;;;5.63;4.93;;;;;;;;;;5014291;28;20215;-52
2023/08/18 10:35:58;;;;;;;5.13;4.63;;;;;;;;;;5016200;28;20183;-51
2023/08/18 10:38:27;;;;;;;5.90;4.80;;;;;;;;;;5017934;28;20599;-51
2023/08/18 10:40:53;;;;;;;5.55;5.00;;;;;;;;;;5017714;28;20274;-52
2023/08/18 10:43:19;;;;;;;4.90;4.15;;;;;;;;;;5017435;28;20196;-51
2023/08/18 10:45:58;;;;;;;7.00;4.75;;;;;;;;;;5017452;28;20181;-51
2023/08/18 10:48:28;;;;;;;6.63;4.82;;;;;;;;;;5017452;28;20180;-51
2023/08/18 10:50:54;;;;;;;5.85;4.07;;;;;;;;;;5016502;28;20192;-51
2023/08/18 10:53:20;;;;;;;5.63;3.42;;;;;;;;;;5016673;28;20588;-51
2023/08/18 10:55:46;;;;;;;5.50;4.95;;;;;;;;;;5014970;28;20204;-51
2023/08/18 10:58:14;;;;;;;5.68;4.95;;;;;;;;;;5017027;28;20278;-52
2023/08/18 11:00:41;;;;;;;5.45;4.65;;;;;;;;;;5015611;28;20207;-51
2023/08/18 11:03:07;;;;;;;4.88;4.47;;;;;;;;;;5017168;28;20252;-51
2023/08/18 11:05:34;;;;;;;5.18;4.18;;;;;;;;;;5017525;28;20198;-52
2023/08/18 11:08:00;;;;;;;6.07;4.53;;;;;;;;;;5017480;28;20207;-51
2023/08/18 11:10:26;;;;;;;5.35;4.82;;;;;;;;;;5017667;28;20184;-51
2023/08/18 11:12:53;;;;;;;5.43;4.90;;;;;;;;;;5016702;28;20207;-51
2023/08/18 11:15:20;;;;;;;5.20;4.70;;;;;;;;;;5017187;28;20200;-51
2023/08/18 11:17:47;;;;;;;6.57;4.47;;;;;;;;;;5017204;28;20463;-52
2023/08/18 11:20:13;;;;;;;5.05;4.55;;;;;;;;;;5016757;28;20250;-52
2023/08/18 11:22:42;;;;;;;5.55;4.53;;;;;;;;;;5016694;28;20188;-51
2023/08/18 11:25:08;;;;;;;5.00;4.50;;;;;;;;;;5017402;28;20196;-51
2023/08/18 11:27:35;;;;;;;4.93;4.50;;;;;;;;;;5017307;28;20428;-51
2023/08/18 11:30:04;;;;;;;4.88;4.38;;;;;;;;;;5016724;28;20199;-51
2023/08/18 11:32:30;;;;;;;5.22;4.72;;;;;;;;;;5016699;28;20645;-51
2023/08/18 11:34:56;;;;;;;4.97;4.57;;;;;;;;;;5015965;28;20188;-51
2023/08/18 11:37:22;;;;;;;6.07;4.80;;;;;;;;;;5017063;28;20509;-52
2023/08/18 11:39:49;;;;;;;4.60;4.07;;;;;;;;;;5016013;28;20207;-51
2023/08/18 11:42:15;;;;;;;6.80;5.25;;;;;;;;;;5016468;28;20180;-52
2023/08/18 11:44:41;;;;;;;6.07;4.70;;;;;;;;;;5015913;28;20239;-51
2023/08/18 11:47:08;;;;;;;5.05;4.55;;;;;;;;;;5014647;28;20200;-51
2023/08/18 11:49:35;;;;;;;6.63;4.72;;;;;;;;;;5015425;28;20176;-51
2023/08/18 11:52:05;;;;;;;5.85;4.90;;;;;;;;;;5016386;28;20184;-51
2023/08/18 11:54:35;;;;;;;5.18;4.72;;;;;;;;;;5016064;28;20188;-51
2023/08/18 11:57:05;;;;;;;5.30;4.82;;;;;;;;;;5016282;28;20219;-51
2023/08/18 11:59:32;;;;;;;4.78;4.28;;;;;;;;;;5016513;28;20475;-51
2023/08/18 12:01:59;;;;;;;6.95;4.57;;;;;;;;;;5015071;28;20190;-51
2023/08/18 12:04:25;;;;;;;4.97;4.45;;;;;;;;;;5031246;28;20193;-51
2023/08/18 12:06:52;;;;;;;5.03;4.57;;;;;;;;;;5016520;28;20180;-51
2023/08/18 12:09:20;;;;;;;4.90;4.50;;;;;;;;;;5016076;28;20184;-51
2023/08/18 12:11:47;;;;;;;5.53;5.03;;;;;;;;;;5015856;28;20500;-51
2023/08/18 12:14:12;;;;;;;5.03;4.45;;;;;;;;;;5015909;28;20441;-51
2023/08/18 12:16:38;;;;;;;5.00;4.50;;;;;;;;;;5015626;28;20199;-51
2023/08/18 12:19:04;;;;;;;5.43;4.93;;;;;;;;;;5030470;28;20186;-52
2023/08/18 12:21:31;;;;;;;6.88;5.10;;;;;;;;;;5015373;28;20216;-51
2023/08/18 12:23:57;;;;;;;5.03;4.40;;;;;;;;;;5014812;28;20548;-51
2023/08/18 12:26:23;;;;;;;5.10;4.60;;;;;;;;;;5015751;28;20447;-51
2023/08/18 12:28:49;;;;;;;5.78;5.28;;;;;;;;;;5015600;28;20267;-51
2023/08/18 12:31:18;;;;;;;4.97;4.47;;;;;;;;;;5015370;28;20795;-51
2023/08/18 12:33:44;;;;;;;4.80;4.30;;;;;;;;;;5015434;28;20478;-51
2023/08/18 12:36:10;;;;;;;4.45;4.05;;;;;;;;;;5015516;28;20674;-51
2023/08/18 12:38:36;;;;;;;4.93;4.53;;;;;;;;;;5015751;28;20184;-51
2023/08/18 12:41:03;;;;;;;5.80;5.13;;;;;;;;;;5015103;28;20204;-52
2023/08/18 12:43:29;;;;;;;5.00;4.60;;;;;;;;;;5014912;28;20173;-51
2023/08/18 12:45:56;;;;;;;5.90;4.82;;;;;;;;;;5015557;28;20580;-51
2023/08/18 12:48:22;;;;;;;5.35;4.85;;;;;;;;;;5015186;28;20192;-51
2023/08/18 12:50:48;;;;;;;4.85;4.45;;;;;;;;;;5014332;28;20263;-51
2023/08/18 12:53:14;;;;;;;5.63;4.97;;;;;;;;;;5014284;28;20264;-51
2023/08/18 12:55:40;;;;;;;4.70;4.30;;;;;;;;;;5015317;28;20653;-51
2023/08/18 12:58:06;;;;;;;5.25;4.63;;;;;;;;;;5014566;28;20185;-51
2023/08/18 13:00:32;;;;;;;5.05;4.50;;;;;;;;;;5030891;28;20598;-51
2023/08/18 13:02:57;;;;;;;5.75;4.50;;;;;;;;;;5013151;28;20191;-51
2023/08/18 13:05:24;;;;;;;5.00;4.50;;;;;;;;;;5014638;28;20564;-51
2023/08/18 13:07:51;;;;;;;4.38;3.92;;;;;;;;;;5014716;28;20172;-51
2023/08/18 13:10:17;;;;;;;8.32;5.00;;;;;;;;;;5014595;28;20191;-51
2023/08/18 13:12:43;;;;;;;5.10;4.70;;;;;;;;;;5014760;28;20180;-51
2023/08/18 13:15:09;;;;;;;4.93;4.45;;;;;;;;;;5015298;28;20196;-51
2023/08/18 13:17:35;;;;;;;6.55;4.63;;;;;;;;;;5015232;28;20208;-51
2023/08/18 13:20:01;;;;;;;9.20;4.45;;;;;;;;;;5015061;28;20598;-51
2023/08/18 13:22:27;;;;;;;4.68;4.28;;;;;;;;;;5014625;28;20172;-51
2023/08/18 13:24:54;;;;;;;7.18;4.53;;;;;;;;;;5014918;28;20192;-51
2023/08/18 13:27:20;;;;;;;5.80;4.78;;;;;;;;;;5015345;28;20164;-52
2023/08/18 13:29:46;;;;;;;5.10;4.60;;;;;;;;;;5015341;28;20578;-52
2023/08/18 13:32:12;;;;;;;4.90;4.40;;;;;;;;;;5014720;28;20205;-51
2023/08/18 13:34:38;;;;;;;6.38;4.47;;;;;;;;;;5014832;28;20184;-51
2023/08/18 13:37:04;;;;;;;4.97;4.47;;;;;;;;;;5030204;28;20207;-51
2023/08/18 13:39:30;;;;;;;6.28;4.63;;;;;;;;;;5014650;28;20552;-51
2023/08/18 13:41:56;;;;;;;5.03;4.55;;;;;;;;;;5014367;28;20555;-51
2023/08/18 13:44:22;;;;;;;6.28;4.20;;;;;;;;;;5014417;28;20559;-51
2023/08/18 13:46:47;;;;;;;4.97;3.83;;;;;;;;;;5013656;28;20199;-51
2023/08/18 13:49:13;;;;;;;4.65;4.18;;;;;;;;;;5014869;28;20177;-51
2023/08/18 13:51:40;;;;;;;4.55;4.15;;;;;;;;;;5014630;28;20215;-51
2023/08/18 13:54:09;;;;;;;5.05;4.55;;;;;;;;;;5014413;28;20184;-51
2023/08/18 13:56:35;;;;;;;5.55;5.05;;;;;;;;;;5015158;28;20454;-51
2023/08/18 13:59:01;;;;;;;4.47;4.07;;;;;;;;;;5014756;28;20200;-51
2023/08/18 14:01:27;;;;;;;5.18;4.68;;;;;;;;;;5013767;28;20227;-51
2023/08/18 14:03:55;;;;;;;4.60;4.18;;;;;;;;;;5013813;28;20622;-51
2023/08/18 14:06:21;;;;;;;4.47;4.07;;;;;;;;;;5013623;28;20864;-51
2023/08/18 14:08:47;;;;;;;5.55;4.88;;;;;;;;;;5018197;28;20184;-51
2023/08/18 14:11:14;;;;;;;6.57;4.30;;;;;;;;;;5017610;28;20188;-52
2023/08/18 14:13:42;;;;;;;4.90;4.50;;;;;;;;;;5016326;28;20195;-51
2023/08/18 14:16:08;;;;;;;8.43;4.88;;;;;;;;;;5017068;28;20230;-51
2023/08/18 14:18:37;;;;;;;4.78;4.38;;;;;;;;;;5032342;28;20505;-52
2023/08/18 14:21:04;;;;;;;4.60;4.25;;;;;;;;;;5017547;28;20289;-51
2023/08/18 14:23:33;;;;;;;4.78;4.20;;;;;;;;;;5018016;28;20169;-51
2023/08/18 14:25:58;;;;;;;4.70;4.20;;;;;;;;;;5017995;28;20176;-51
2023/08/18 14:28:24;;;;;;;4.53;4.22;;;;;;;;;;5017990;28;20176;-51
2023/08/18 14:30:50;;;;;;;4.70;4.32;;;;;;;;;;5016824;28;20192;-51
2023/08/18 14:33:16;;;;;;;4.68;4.28;;;;;;;;;;5017662;28;20201;-51
2023/08/18 14:35:42;;;;;;;4.55;4.15;;;;;;;;;;5018118;28;20239;-51
2023/08/18 14:38:08;;;;;;;6.72;4.53;;;;;;;;;;5018019;28;20188;-52